KDNV

Vermilion Regional Airport

Danville, Illinois, USA
METAR KDNV 220955Z AUTO 00000KT 3SM BR SCT026 BKN035 OVC065 18/18 A2996 RMK AO2 T01800180
Observed Flight Rules
May-22 @ 09:55 UTC (22 minutes ago) Marginal Visual Flight Rules
Visibility Clouds Conditions
3 miles
  • Scattered at 2,600' AGL
  • Broken at 3,500' AGL
  • Overcast at 6,500' AGL
  • Mist
Temperatures Readings
Current 18°C / 64°F
Dewpoint 18°C / 64°F
Humidity 100%
Altimeter 29.96" Hg
Pressure 1015 hPa
Elevation 212
METAR KDNV 220955Z AUTO 00000KT 3SM BR SCT026 BKN035 OVC065 18/18 A2996 RMK AO2 T01800180
Observed Flight Rules
May-22 @ 09:55 UTC
(22 minutes ago)
MVFR
Clouds
  • Scattered at 2,600' AGL
  • Broken at 3,500' AGL
  • Overcast at 6,500' AGL
Conditions
  • Mist
Temperature Dewpoint
18°C / 64°F 18°C / 64°F
Humidity Altimeter Pressure
100% 29.96" Hg 1015 hPa